createdAt,value
2017-06-23T00:00:11.650Z,89.7
2017-06-23T00:01:18.805Z,91
2017-06-23T00:02:26.300Z,90.9
2017-06-23T00:03:33.793Z,91
2017-06-23T00:04:40.966Z,91.7
2017-06-23T00:05:48.759Z,91.3
2017-06-23T00:06:56.241Z,91.2
2017-06-23T00:08:03.737Z,90.9
2017-06-23T00:09:11.230Z,90.4
2017-06-23T00:10:18.066Z,90.2
2017-06-23T00:11:25.539Z,91.2
2017-06-23T00:12:33.031Z,90.6
2017-06-23T00:13:40.534Z,90.7
2017-06-23T00:14:48.025Z,91.4
2017-06-23T00:15:55.525Z,91.2
2017-06-23T00:17:03.323Z,91.5
2017-06-23T00:18:10.818Z,91.2
2017-06-23T00:19:18.307Z,90.9
2017-06-23T00:20:25.794Z,91.3
2017-06-23T00:21:33.276Z,91.6
2017-06-23T00:22:40.737Z,91.8
2017-06-23T00:23:48.226Z,91.2
2017-06-23T00:24:55.715Z,91.1
2017-06-23T00:26:02.878Z,91.4
2017-06-23T00:27:10.361Z,90.7
2017-06-23T00:28:18.156Z,90.7
2017-06-23T00:29:25.652Z,91.1
2017-06-23T00:30:33.150Z,91.3
2017-06-23T00:31:40.643Z,90.7
2017-06-23T00:32:47.821Z,90.7
2017-06-23T00:33:55.611Z,90.4
2017-06-23T00:35:02.773Z,90.3
2017-06-23T00:36:09.929Z,90.3
2017-06-23T00:37:17.416Z,89.8
2017-06-23T00:38:24.900Z,90.1
2017-06-23T00:39:32.746Z,90.1
2017-06-23T00:40:40.246Z,89
2017-06-23T00:41:47.738Z,89.7
2017-06-23T00:42:55.228Z,89.9
2017-06-23T00:44:02.725Z,89.5
2017-06-23T00:45:10.566Z,89.3
2017-06-23T00:46:17.722Z,89.4
2017-06-23T00:47:25.210Z,88.9
2017-06-23T00:48:32.709Z,89.1
2017-06-23T00:49:39.865Z,88.4
2017-06-23T00:50:47.372Z,90
2017-06-23T00:51:54.864Z,88.6
2017-06-23T00:53:02.356Z,89.3
2017-06-23T00:54:09.854Z,89.6
2017-06-23T00:55:17.339Z,89.4
2017-06-23T00:56:25.129Z,89.1
2017-06-23T00:57:32.614Z,88.6
2017-06-23T00:58:40.108Z,89.5
2017-06-23T00:59:47.596Z,90
2017-06-23T01:00:54.760Z,88.4
2017-06-23T01:02:02.597Z,89.4
2017-06-23T01:03:10.081Z,90
2017-06-23T01:04:17.568Z,90
2017-06-23T01:05:25.051Z,89.2
2017-06-23T01:06:32.536Z,90
2017-06-23T01:07:40.000Z,89.1
2017-06-23T01:08:47.501Z,89.7
2017-06-23T01:09:54.988Z,88.7
2017-06-23T01:11:02.154Z,89.6
2017-06-23T01:12:09.646Z,89.5
2017-06-23T01:13:17.441Z,89.4
2017-06-23T01:14:24.940Z,90.3
2017-06-23T01:15:32.434Z,89.3
2017-06-23T01:16:39.921Z,89.8
2017-06-23T01:17:47.405Z,89.9
2017-06-23T01:18:55.190Z,89.8
2017-06-23T01:20:02.686Z,90
2017-06-23T01:21:10.195Z,90.1
2017-06-23T01:22:17.679Z,89.5
2017-06-23T01:23:24.849Z,90.3
2017-06-23T01:24:32.637Z,90.1
2017-06-23T01:25:39.805Z,90.3
2017-06-23T01:26:47.293Z,89.7
2017-06-23T01:27:54.782Z,90.6
2017-06-23T01:29:02.275Z,90.5
2017-06-23T01:30:10.066Z,90
2017-06-23T01:31:17.551Z,90.6
2017-06-23T01:32:24.709Z,90.1
2017-06-23T01:33:32.196Z,90.4
2017-06-23T01:34:39.351Z,90.1
2017-06-23T01:35:46.484Z,90.2
2017-06-23T01:36:53.979Z,90
2017-06-23T01:38:01.471Z,90.3
2017-06-23T01:39:08.965Z,88.8
2017-06-23T01:40:16.452Z,89.8
2017-06-23T01:41:24.241Z,90
2017-06-23T01:42:31.729Z,90
2017-06-23T01:43:39.217Z,89.8
2017-06-23T01:44:46.708Z,89.1
2017-06-23T01:45:54.195Z,89.1
2017-06-23T01:47:01.991Z,89
2017-06-23T01:48:09.493Z,88.7
2017-06-23T01:49:16.983Z,88.4
2017-06-23T01:50:24.470Z,87.9
2017-06-23T01:51:31.635Z,88
2017-06-23T01:52:39.427Z,86.6
2017-06-23T01:53:46.816Z,86.4
2017-06-23T01:54:54.302Z,86.4
2017-06-23T01:56:01.797Z,86.7
2017-06-23T01:57:09.284Z,85.6
2017-06-23T01:58:17.093Z,85.5
2017-06-23T01:59:24.588Z,85
2017-06-23T02:00:32.074Z,84.9
2017-06-23T02:01:39.560Z,85.4
2017-06-23T02:02:47.045Z,84.3
2017-06-23T02:03:54.839Z,84
2017-06-23T02:05:02.002Z,84.8
2017-06-23T02:06:09.500Z,84.7
2017-06-23T02:07:16.990Z,84.7
2017-06-23T02:08:24.471Z,84.2
2017-06-23T02:09:32.261Z,84
2017-06-23T02:10:39.747Z,84.7
2017-06-23T02:11:47.231Z,84.4
2017-06-23T02:12:54.716Z,84.8
2017-06-23T02:14:02.210Z,85.2
2017-06-23T02:15:09.999Z,84.5
2017-06-23T02:16:17.497Z,85.4
2017-06-23T02:17:24.647Z,84.9
2017-06-23T02:18:32.126Z,85.3
2017-06-23T02:19:39.627Z,85.4
2017-06-23T02:20:47.414Z,85.5
2017-06-23T02:21:54.894Z,86
2017-06-23T02:23:02.386Z,85.5
2017-06-23T02:24:09.555Z,85.9
2017-06-23T02:25:17.035Z,85.9
2017-06-23T02:26:24.823Z,85.9
2017-06-23T02:27:32.306Z,86.3
2017-06-23T02:28:39.140Z,85.8
2017-06-23T02:29:46.622Z,85.8
2017-06-23T02:30:54.105Z,85.8
2017-06-23T02:32:01.904Z,85.8
2017-06-23T02:33:09.385Z,85.8
2017-06-23T02:34:16.875Z,86.3
2017-06-23T02:35:24.037Z,86.2
2017-06-23T02:36:31.508Z,86.6
2017-06-23T02:37:39.291Z,85.9
2017-06-23T02:38:46.809Z,86.5
2017-06-23T02:39:54.284Z,86.9
2017-06-23T02:41:01.449Z,86.6
2017-06-23T02:42:08.949Z,86.6
2017-06-23T02:43:16.728Z,86.2
2017-06-23T02:44:23.889Z,87.1
2017-06-23T02:45:31.051Z,87.2
2017-06-23T02:46:38.203Z,87.1
2017-06-23T02:47:45.029Z,86.8
2017-06-23T02:48:52.812Z,86.7
2017-06-23T02:50:00.303Z,86.1
2017-06-23T02:51:07.789Z,86.8
2017-06-23T02:52:14.952Z,87.2
2017-06-23T02:53:22.436Z,87
2017-06-23T02:54:30.227Z,86.4
2017-06-23T02:55:37.708Z,86.8
2017-06-23T02:56:45.195Z,86.9
2017-06-23T02:57:52.698Z,87
2017-06-23T02:59:00.195Z,87.2
2017-06-23T03:00:07.981Z,86.8
2017-06-23T03:01:15.150Z,87.3
2017-06-23T03:02:21.982Z,86.3
2017-06-23T03:03:29.476Z,87.9
2017-06-23T03:04:36.960Z,87.3
2017-06-23T03:05:44.745Z,86.8
2017-06-23T03:06:52.236Z,87.1
2017-06-23T03:07:59.723Z,87.7
2017-06-23T03:09:07.207Z,88.5
2017-06-23T03:10:14.685Z,88.7
2017-06-23T03:11:22.480Z,88.8
2017-06-23T03:12:29.985Z,88.7
2017-06-23T03:13:37.460Z,88.1
2017-06-23T03:14:44.635Z,88.3
2017-06-23T03:15:52.118Z,88.2
2017-06-23T03:16:59.910Z,87.7
2017-06-23T03:18:07.056Z,87.5
2017-06-23T03:19:14.550Z,88.1
2017-06-23T03:20:22.037Z,87.6
2017-06-23T03:21:29.183Z,87.4
2017-06-23T03:22:36.967Z,88.7
2017-06-23T03:23:44.448Z,88.1
2017-06-23T03:24:51.937Z,87.8
2017-06-23T03:25:59.427Z,87.7
2017-06-23T03:27:06.910Z,87.2
2017-06-23T03:28:14.364Z,88
2017-06-23T03:29:21.852Z,87.6
2017-06-23T03:30:29.349Z,88.4
2017-06-23T03:31:36.831Z,88.1
2017-06-23T03:32:44.015Z,89.1
2017-06-23T03:33:51.467Z,89.7
2017-06-23T03:34:58.637Z,89.3
2017-06-23T03:36:05.793Z,89.6
2017-06-23T03:37:13.279Z,88
2017-06-23T03:38:20.764Z,89
2017-06-23T03:39:28.549Z,89.2
2017-06-23T03:40:36.043Z,89.5
2017-06-23T03:41:43.519Z,89.1
2017-06-23T03:42:51.002Z,89.3
2017-06-23T03:43:58.162Z,89.5
2017-06-23T03:45:05.952Z,88.9
2017-06-23T03:46:13.437Z,88
2017-06-23T03:47:20.923Z,88.8
2017-06-23T03:48:28.412Z,87.7
2017-06-23T03:49:35.901Z,89.3
2017-06-23T03:50:43.406Z,88.3
2017-06-23T03:51:50.892Z,89
2017-06-23T03:52:58.379Z,89.4
2017-06-23T03:54:05.535Z,89.4
2017-06-23T03:55:13.023Z,88.9
2017-06-23T03:56:20.496Z,89.2
2017-06-23T03:57:27.975Z,89.3
2017-06-23T03:58:35.462Z,88.9
2017-06-23T03:59:42.955Z,89.1
2017-06-23T04:00:50.447Z,89.5
2017-06-23T04:01:58.234Z,87.9
2017-06-23T04:03:05.729Z,90
2017-06-23T04:04:13.217Z,88.9
2017-06-23T04:05:20.700Z,88.7
2017-06-23T04:06:28.186Z,90
2017-06-23T04:07:35.976Z,90
2017-06-23T04:08:43.467Z,89.7
2017-06-23T04:09:50.952Z,89.2
2017-06-23T04:10:58.437Z,89.9
2017-06-23T04:12:05.932Z,89.1
2017-06-23T04:13:13.084Z,88.9
2017-06-23T04:14:20.585Z,89.9
2017-06-23T04:15:28.074Z,89.9
2017-06-23T04:16:35.560Z,90.1
2017-06-23T04:17:43.359Z,90
2017-06-23T04:18:50.504Z,89.2
2017-06-23T04:19:57.992Z,88.5
2017-06-23T04:21:05.475Z,89.1
2017-06-23T04:22:12.962Z,89.4
2017-06-23T04:23:20.742Z,88.6
2017-06-23T04:24:28.235Z,89
2017-06-23T04:25:36.126Z,89.5
2017-06-23T04:26:43.614Z,88.3
2017-06-23T04:27:50.774Z,88.9
2017-06-23T04:28:58.232Z,89.2
2017-06-23T04:30:05.714Z,89.4
2017-06-23T04:31:13.199Z,88.9
2017-06-23T04:32:20.358Z,89.1
2017-06-23T04:33:27.529Z,88.5
2017-06-23T04:34:35.307Z,88.3
2017-06-23T04:35:42.454Z,88.3
2017-06-23T04:36:49.936Z,88.4
2017-06-23T04:37:57.428Z,87.9
2017-06-23T04:39:04.916Z,87.3
2017-06-23T04:40:11.730Z,87.6
2017-06-23T04:41:18.889Z,87.6
2017-06-23T04:42:26.373Z,87.1
2017-06-23T04:43:33.879Z,87
2017-06-23T04:44:41.033Z,87.1
2017-06-23T04:45:48.810Z,87.9
2017-06-23T04:46:56.298Z,87.3
2017-06-23T04:48:03.453Z,87.3
2017-06-23T04:49:10.935Z,87.7
2017-06-23T04:50:18.429Z,87.5
2017-06-23T04:51:26.207Z,86.6
2017-06-23T04:52:33.695Z,87.1
2017-06-23T04:53:41.177Z,86
2017-06-23T04:54:48.677Z,85.6
2017-06-23T04:55:56.160Z,85.1
2017-06-23T04:57:03.314Z,85.3
2017-06-23T04:58:10.803Z,85.9
2017-06-23T04:59:18.285Z,83.4
2017-06-23T05:00:25.770Z,84
2017-06-23T05:01:32.924Z,85.3
2017-06-23T05:02:40.707Z,83.9
2017-06-23T05:03:47.864Z,83.8
2017-06-23T05:04:55.025Z,83.8
2017-06-23T05:06:02.516Z,85
2017-06-23T05:07:09.676Z,84.6
2017-06-23T05:08:17.463Z,84.4
2017-06-23T05:09:24.945Z,83.7
2017-06-23T05:10:32.101Z,83.7
2017-06-23T05:11:39.598Z,83.7
2017-06-23T05:12:47.074Z,82.6
2017-06-23T05:13:54.213Z,83.1
2017-06-23T05:15:01.698Z,83.3
2017-06-23T05:16:09.192Z,82.6
2017-06-23T05:17:16.685Z,82.9
2017-06-23T05:18:24.163Z,83.4
2017-06-23T05:19:31.654Z,83.1
2017-06-23T05:20:38.810Z,83.6
2017-06-23T05:21:47.909Z,83.1
2017-06-23T05:22:55.401Z,82.5
2017-06-23T05:24:02.887Z,82.5
2017-06-23T05:25:10.670Z,82.6
2017-06-23T05:26:18.159Z,82
2017-06-23T05:27:25.653Z,82.8
2017-06-23T05:28:33.130Z,81
2017-06-23T05:29:40.619Z,82.9
2017-06-23T05:30:48.404Z,82.4
2017-06-23T05:31:55.562Z,82.2
2017-06-23T05:33:02.718Z,82.5
2017-06-23T05:34:10.225Z,82.6
2017-06-23T05:35:17.707Z,80.9
2017-06-23T05:36:25.192Z,82.1
2017-06-23T05:37:32.353Z,81.5
2017-06-23T05:38:39.855Z,82
2017-06-23T05:39:47.335Z,82.7
2017-06-23T05:40:54.695Z,81.3
2017-06-23T05:42:02.778Z,82.1
2017-06-23T05:43:10.257Z,80.6
2017-06-23T05:44:17.743Z,80.1
2017-06-23T05:45:25.238Z,79.8
2017-06-23T05:46:32.743Z,79.7
2017-06-23T05:47:41.183Z,79.8
2017-06-23T05:48:48.672Z,81.1
2017-06-23T05:49:56.154Z,79.1
2017-06-23T05:51:03.642Z,79.4
2017-06-23T05:52:11.378Z,78.6
2017-06-23T05:53:19.216Z,79.4
2017-06-23T05:54:26.383Z,80
2017-06-23T05:55:33.542Z,80.2
2017-06-23T05:56:41.028Z,80.4
2017-06-23T05:57:48.172Z,79.6
2017-06-23T05:58:55.955Z,79.9
2017-06-23T06:00:03.437Z,80.2
2017-06-23T06:01:10.933Z,79.3
2017-06-23T06:02:18.421Z,79.3
2017-06-23T06:03:25.907Z,79.7
2017-06-23T06:04:33.360Z,80
2017-06-23T06:05:40.856Z,79.2
2017-06-23T06:06:48.345Z,79.4
2017-06-23T06:07:55.825Z,80
2017-06-23T06:09:03.309Z,79.8
2017-06-23T06:10:11.144Z,79.6
2017-06-23T06:11:18.626Z,80.2
2017-06-23T06:12:26.108Z,78.5
2017-06-23T06:13:33.587Z,79.1
2017-06-23T06:14:40.755Z,79
2017-06-23T06:15:48.589Z,79.5
2017-06-23T06:16:56.072Z,79.4
2017-06-23T06:18:03.555Z,80.2
2017-06-23T06:19:11.041Z,80.1
2017-06-23T06:20:18.528Z,79.4
2017-06-23T06:21:25.702Z,79.6
2017-06-23T06:22:33.191Z,80
2017-06-23T06:23:40.673Z,77.4
2017-06-23T06:24:48.159Z,77.2
2017-06-23T06:25:55.645Z,77.8
2017-06-23T06:27:03.478Z,77.6
2017-06-23T06:28:10.668Z,77.6
2017-06-23T06:29:18.165Z,77.5
2017-06-23T06:30:25.657Z,78.1
2017-06-23T06:31:33.145Z,79.4
2017-06-23T06:32:40.314Z,78.8
2017-06-23T06:33:47.798Z,79.5
2017-06-23T06:34:55.283Z,78.8
2017-06-23T06:36:02.770Z,77.8
2017-06-23T06:37:10.258Z,78.2
2017-06-23T06:38:17.772Z,78.6
2017-06-23T06:39:25.264Z,78
2017-06-23T06:40:32.751Z,78.4
2017-06-23T06:41:40.232Z,78.9
2017-06-23T06:42:47.724Z,79.4
2017-06-23T06:43:55.516Z,79.4
2017-06-23T06:45:03.004Z,78.4
2017-06-23T06:46:10.495Z,78.9
2017-06-23T06:47:17.978Z,78.4
2017-06-23T06:48:25.457Z,78.4
2017-06-23T06:49:33.244Z,78.9
2017-06-23T06:50:40.727Z,78.4
2017-06-23T06:51:48.224Z,78.5
2017-06-23T06:52:55.709Z,77.8
2017-06-23T06:54:03.200Z,77.5
2017-06-23T06:55:11.033Z,79.7
2017-06-23T06:56:18.527Z,79.4
2017-06-23T06:57:26.030Z,77.9
2017-06-23T06:58:33.526Z,77.3
2017-06-23T06:59:40.678Z,75.7
2017-06-23T07:00:48.135Z,77.1
2017-06-23T07:01:55.624Z,78.7
2017-06-23T07:03:02.785Z,77.9
2017-06-23T07:04:10.277Z,77.2
2017-06-23T07:05:17.757Z,77
2017-06-23T07:06:25.595Z,77.3
2017-06-23T07:07:33.086Z,76
2017-06-23T07:08:40.572Z,76.1
2017-06-23T07:09:48.059Z,75.8
2017-06-23T07:10:55.546Z,77.7
2017-06-23T07:12:03.382Z,76.7
2017-06-23T07:13:10.864Z,77.6
2017-06-23T07:14:18.355Z,76.3
2017-06-23T07:15:25.847Z,76.2
2017-06-23T07:16:33.334Z,77.8
2017-06-23T07:17:41.161Z,75.5
2017-06-23T07:18:48.656Z,76.3
2017-06-23T07:19:56.138Z,75.2
2017-06-23T07:21:03.627Z,75.2
2017-06-23T07:22:11.119Z,75.9
2017-06-23T07:23:18.960Z,74.5
2017-06-23T07:24:26.439Z,74.6
2017-06-23T07:25:33.926Z,75.3
2017-06-23T07:26:41.080Z,75.7
2017-06-23T07:27:48.563Z,76.4
2017-06-23T07:28:56.402Z,76.7
2017-06-23T07:30:03.903Z,77.3
2017-06-23T07:31:11.392Z,77.4
2017-06-23T07:32:18.878Z,76.4
2017-06-23T07:33:26.363Z,76.4
2017-06-23T07:34:33.873Z,77.3
2017-06-23T07:35:41.355Z,76.7
2017-06-23T07:36:48.842Z,77
2017-06-23T07:37:56.325Z,76.9
2017-06-23T07:39:03.821Z,76.1
2017-06-23T07:40:11.669Z,76.1
2017-06-23T07:41:19.158Z,76.6
2017-06-23T07:42:26.654Z,76.1
2017-06-23T07:43:34.148Z,76.8
2017-06-23T07:44:41.634Z,75.5
2017-06-23T07:45:49.140Z,76.1
2017-06-23T07:46:56.627Z,76.6
2017-06-23T07:48:04.084Z,76.3
2017-06-23T07:49:11.577Z,75.7
2017-06-23T07:50:19.059Z,74.9
2017-06-23T07:51:26.216Z,75.4
2017-06-23T07:52:33.703Z,74.6
2017-06-23T07:53:41.482Z,75.5
2017-06-23T07:54:48.970Z,75.8
2017-06-23T07:55:56.471Z,75.8
2017-06-23T07:57:03.963Z,75.6
2017-06-23T07:58:11.456Z,75.7
2017-06-23T07:59:19.468Z,76.6
2017-06-23T08:00:26.967Z,76
2017-06-23T08:01:34.465Z,75.3
2017-06-23T08:02:41.952Z,75.4
2017-06-23T08:03:49.438Z,75.9
2017-06-23T08:04:56.907Z,76
2017-06-23T08:06:04.393Z,74.8
2017-06-23T08:07:11.885Z,76.2
2017-06-23T08:08:19.032Z,76.8
2017-06-23T08:09:26.514Z,75.3
2017-06-23T08:10:34.312Z,75.4
2017-06-23T08:11:41.801Z,75.3
2017-06-23T08:12:48.960Z,75.6
2017-06-23T08:13:56.116Z,75.2
2017-06-23T08:15:03.272Z,75.2
2017-06-23T08:16:11.054Z,75.2
2017-06-23T08:17:18.534Z,76.4
2017-06-23T08:18:26.030Z,75.8
2017-06-23T08:19:33.185Z,74.3
2017-06-23T08:20:40.350Z,75.1
2017-06-23T08:21:47.851Z,75.7
2017-06-23T08:22:55.338Z,74.6
2017-06-23T08:24:02.820Z,75.2
2017-06-23T08:25:09.992Z,75.4
2017-06-23T08:26:17.477Z,75.7
2017-06-23T08:27:25.269Z,76
2017-06-23T08:28:32.100Z,75.8
2017-06-23T08:29:39.590Z,76.2
2017-06-23T08:30:47.089Z,76
2017-06-23T08:31:54.576Z,76
2017-06-23T08:33:02.361Z,76.7
2017-06-23T08:34:09.849Z,75.8
2017-06-23T08:35:17.346Z,75.1
2017-06-23T08:36:24.836Z,75.1
2017-06-23T08:37:32.323Z,74.9
2017-06-23T08:38:39.772Z,75.4
2017-06-23T08:39:47.257Z,75.6
2017-06-23T08:40:54.745Z,74.8
2017-06-23T08:42:02.248Z,74.2
2017-06-23T08:43:09.080Z,73.8
2017-06-23T08:44:16.592Z,75.2
2017-06-23T08:45:24.073Z,74.3
2017-06-23T08:46:31.600Z,74.3
2017-06-23T08:47:39.106Z,73
2017-06-23T08:48:46.952Z,73
2017-06-23T08:49:54.447Z,72.4
2017-06-23T08:51:01.932Z,72.9
2017-06-23T08:52:09.423Z,73.1
2017-06-23T08:53:16.588Z,73.7
2017-06-23T08:54:24.372Z,73.5
2017-06-23T08:55:31.855Z,71.8
2017-06-23T08:56:39.341Z,71.9
2017-06-23T08:57:46.507Z,70.9
2017-06-23T08:58:53.989Z,70.6
2017-06-23T09:00:01.500Z,71.2
2017-06-23T09:01:08.988Z,72.4
2017-06-23T09:02:16.482Z,70.1
2017-06-23T09:03:23.966Z,69.4
2017-06-23T09:04:31.447Z,69.4
2017-06-23T09:05:39.237Z,68.3
2017-06-23T09:06:46.725Z,68.6
2017-06-23T09:07:54.210Z,66.7
2017-06-23T09:09:01.695Z,68.4
2017-06-23T09:10:09.179Z,70.3
2017-06-23T09:11:17.021Z,66.4
2017-06-23T09:12:24.178Z,66.8
2017-06-23T09:13:31.671Z,66.2
2017-06-23T09:14:38.833Z,65.9
2017-06-23T09:15:46.313Z,67.9
2017-06-23T09:16:54.146Z,68
2017-06-23T09:18:01.381Z,67.8
2017-06-23T09:19:08.868Z,69.2
2017-06-23T09:20:16.025Z,67.7
2017-06-23T09:21:23.513Z,67.5
2017-06-23T09:22:31.360Z,69.1
2017-06-23T09:23:38.843Z,68.4
2017-06-23T09:24:46.328Z,68.8
2017-06-23T09:25:53.815Z,68.9
2017-06-23T09:27:01.308Z,69
2017-06-23T09:28:09.140Z,69.6
2017-06-23T09:29:16.620Z,67.8
2017-06-23T09:30:24.113Z,68.5
2017-06-23T09:31:31.603Z,68
2017-06-23T09:32:39.089Z,68.1
2017-06-23T09:33:46.930Z,68.1
2017-06-23T09:34:54.411Z,68.8
2017-06-23T09:36:01.898Z,66.6
2017-06-23T09:37:09.382Z,68.2
2017-06-23T09:38:16.872Z,67.2
2017-06-23T09:39:24.034Z,66.7
2017-06-23T09:40:31.831Z,66.2
2017-06-23T09:41:39.318Z,66.5
2017-06-23T09:42:46.806Z,66.4
2017-06-23T09:43:54.295Z,66.7
2017-06-23T09:45:01.790Z,66.6
2017-06-23T09:46:09.571Z,66.3
2017-06-23T09:47:17.056Z,66
2017-06-23T09:48:24.543Z,67
2017-06-23T09:49:32.031Z,65.8
2017-06-23T09:50:39.533Z,66
2017-06-23T09:51:47.325Z,66.5
2017-06-23T09:52:54.806Z,65.6
2017-06-23T09:54:02.291Z,66.3
2017-06-23T09:55:09.787Z,64.9
2017-06-23T09:56:17.272Z,65.4
2017-06-23T09:57:25.063Z,65.8
2017-06-23T09:58:32.559Z,66
2017-06-23T09:59:40.057Z,66.3
2017-06-23T10:00:47.544Z,66.5
2017-06-23T10:01:55.030Z,66.5
2017-06-23T10:03:02.524Z,67.5
2017-06-23T10:04:10.015Z,66.6
2017-06-23T10:05:17.510Z,65.1
2017-06-23T10:06:24.989Z,66.5
2017-06-23T10:07:32.489Z,65.8
2017-06-23T10:08:40.283Z,64.6
2017-06-23T10:09:47.452Z,65.4
2017-06-23T10:10:54.946Z,64.9
2017-06-23T10:12:02.431Z,66
2017-06-23T10:13:09.920Z,65.8
2017-06-23T10:14:17.710Z,67.1
2017-06-23T10:15:24.867Z,65.9
2017-06-23T10:16:32.356Z,64.8
2017-06-23T10:17:39.844Z,65.4
2017-06-23T10:18:47.007Z,64.4
2017-06-23T10:19:54.170Z,65.4
2017-06-23T10:21:01.658Z,63.6
2017-06-23T10:22:09.151Z,64.5
2017-06-23T10:23:16.327Z,65
2017-06-23T10:24:23.819Z,63.8
2017-06-23T10:25:31.607Z,64.9
2017-06-23T10:26:39.097Z,64
2017-06-23T10:27:46.576Z,64.2
2017-06-23T10:28:54.079Z,63.6
2017-06-23T10:30:01.558Z,64.3
2017-06-23T10:31:09.417Z,65.3
2017-06-23T10:32:16.896Z,65.1
2017-06-23T10:33:24.383Z,63.3
2017-06-23T10:34:31.871Z,64.2
2017-06-23T10:35:39.352Z,61.4
2017-06-23T10:36:46.857Z,62.4
2017-06-23T10:37:54.342Z,62.6
2017-06-23T10:39:01.828Z,63.1
2017-06-23T10:40:09.308Z,61
2017-06-23T10:41:16.798Z,61.8
2017-06-23T10:42:24.587Z,61.7
2017-06-23T10:43:32.073Z,61.7
2017-06-23T10:44:39.557Z,61
2017-06-23T10:45:47.070Z,61.9
2017-06-23T10:46:54.555Z,62
2017-06-23T10:48:02.342Z,61.8
2017-06-23T10:49:09.835Z,62.5
2017-06-23T10:50:17.323Z,62
2017-06-23T10:51:24.829Z,61.4
2017-06-23T10:52:32.318Z,61
2017-06-23T10:53:39.784Z,61.1
2017-06-23T10:54:47.268Z,60.2
2017-06-23T10:55:54.745Z,61
2017-06-23T10:57:02.236Z,61.8
2017-06-23T10:58:09.384Z,61.2
2017-06-23T10:59:16.900Z,60.6
2017-06-23T11:00:24.391Z,60.4
2017-06-23T11:01:31.882Z,61.7
2017-06-23T11:02:39.366Z,60.4
2017-06-23T11:03:46.522Z,61
2017-06-23T11:04:54.362Z,61.4
2017-06-23T11:06:01.854Z,61.2
2017-06-23T11:07:09.337Z,60.5
2017-06-23T11:08:16.827Z,60
2017-06-23T11:09:24.315Z,61
2017-06-23T11:10:31.825Z,59.4
2017-06-23T11:11:39.317Z,60
2017-06-23T11:12:46.817Z,58.9
2017-06-23T11:13:54.309Z,58.5
2017-06-23T11:15:01.800Z,60
2017-06-23T11:16:09.641Z,59.5
2017-06-23T11:17:17.133Z,59.8
2017-06-23T11:18:24.300Z,59.4
2017-06-23T11:19:31.793Z,60.3
2017-06-23T11:20:39.278Z,58.5
2017-06-23T11:21:47.125Z,59.5
2017-06-23T11:22:54.621Z,59.2
2017-06-23T11:24:02.115Z,58.4
2017-06-23T11:25:09.605Z,59.5
2017-06-23T11:26:17.090Z,59.8
2017-06-23T11:27:24.261Z,59.1
2017-06-23T11:28:31.749Z,59.7
2017-06-23T11:29:39.581Z,59.2
2017-06-23T11:30:47.076Z,59.2
2017-06-23T11:31:54.565Z,58.9
2017-06-23T11:33:02.049Z,58.5
2017-06-23T11:34:09.551Z,58.8
2017-06-23T11:35:17.041Z,59.4
2017-06-23T11:36:24.499Z,60.7
2017-06-23T11:37:31.995Z,59.3
2017-06-23T11:38:39.483Z,58.8
2017-06-23T11:39:46.968Z,60.6
2017-06-23T11:40:54.458Z,57.5
2017-06-23T11:42:02.250Z,58.2
2017-06-23T11:43:09.738Z,56.9
2017-06-23T11:44:17.235Z,58.3
2017-06-23T11:45:24.734Z,59.2
2017-06-23T11:46:32.225Z,59.9
2017-06-23T11:47:39.696Z,59.8
2017-06-23T11:48:46.867Z,59.9
2017-06-23T11:49:54.361Z,59.3
2017-06-23T11:51:01.848Z,59.8
2017-06-23T11:52:09.337Z,60
2017-06-23T11:53:17.352Z,59.7
2017-06-23T11:54:24.843Z,55.4
2017-06-23T11:55:32.334Z,58.1
2017-06-23T11:56:39.833Z,56.4
2017-06-23T11:57:47.314Z,56.8
2017-06-23T11:58:55.147Z,58.1
2017-06-23T12:00:02.646Z,57.2
2017-06-23T12:01:10.136Z,57
2017-06-23T12:02:17.626Z,58.4
2017-06-23T12:03:25.016Z,59.2
2017-06-23T12:04:32.860Z,59.2
2017-06-23T12:05:40.350Z,57.2
2017-06-23T12:06:47.843Z,54.3
2017-06-23T12:07:55.027Z,55
2017-06-23T12:09:02.513Z,55.1
2017-06-23T12:10:10.017Z,55.9
2017-06-23T12:11:17.506Z,56
2017-06-23T12:12:25.211Z,56.2
2017-06-23T12:13:32.708Z,56.3
2017-06-23T12:14:40.191Z,55.5
2017-06-23T12:15:48.031Z,56.9
2017-06-23T12:16:55.193Z,55.4
2017-06-23T12:18:02.343Z,55.4
2017-06-23T12:19:09.836Z,55.5
2017-06-23T12:20:17.550Z,55.6
2017-06-23T12:21:25.385Z,56.4
2017-06-23T12:22:32.877Z,55.8
2017-06-23T12:23:40.363Z,55.6
2017-06-23T12:24:47.876Z,55.3
2017-06-23T12:25:54.697Z,56.1
2017-06-23T12:27:02.488Z,56.3
2017-06-23T12:28:09.975Z,56.6
2017-06-23T12:29:17.489Z,53.4
2017-06-23T12:30:24.986Z,54.9
2017-06-23T12:31:32.481Z,52.9
2017-06-23T12:32:40.324Z,52
2017-06-23T12:33:47.501Z,51.6
2017-06-23T12:34:55.000Z,52.5
2017-06-23T12:36:02.490Z,52.8
2017-06-23T12:37:09.981Z,54.7
2017-06-23T12:38:17.827Z,54.5
2017-06-23T12:39:25.319Z,53.7
2017-06-23T12:40:32.477Z,53
2017-06-23T12:41:39.972Z,52.1
2017-06-23T12:42:47.462Z,52.3
2017-06-23T12:43:55.307Z,52.7
2017-06-23T12:45:02.795Z,50.9
2017-06-23T12:46:10.296Z,52.9
2017-06-23T12:47:17.449Z,50.4
2017-06-23T12:48:24.952Z,51.8
2017-06-23T12:49:32.740Z,53.6
2017-06-23T12:50:40.243Z,53.2
2017-06-23T12:51:47.732Z,53.5
2017-06-23T12:52:55.223Z,52.1
2017-06-23T12:54:02.712Z,50.4
2017-06-23T12:55:10.556Z,50.2
2017-06-23T12:56:18.045Z,50.4
2017-06-23T12:57:25.208Z,50.2
2017-06-23T12:58:32.703Z,50.1
2017-06-23T12:59:40.195Z,50
2017-06-23T13:00:48.029Z,50
2017-06-23T13:01:55.534Z,48.6
2017-06-23T13:03:03.025Z,49.8
2017-06-23T13:04:10.510Z,47.3
2017-06-23T13:05:18.004Z,48.9
2017-06-23T13:06:25.854Z,48.6
2017-06-23T13:07:33.346Z,48.7
2017-06-23T13:08:40.505Z,49.9
2017-06-23T13:09:47.661Z,49.1
2017-06-23T13:10:54.493Z,50.1
2017-06-23T13:12:01.657Z,48.1
2017-06-23T13:13:09.145Z,48.9
2017-06-23T13:14:16.633Z,48
2017-06-23T13:15:24.414Z,48
2017-06-23T13:16:31.904Z,49.1
2017-06-23T13:17:39.071Z,49.1
2017-06-23T13:18:46.584Z,49.4
2017-06-23T13:19:54.079Z,49.8
2017-06-23T13:21:01.923Z,48.9
2017-06-23T13:22:09.083Z,49.6
2017-06-23T13:23:16.568Z,49.6
2017-06-23T13:24:24.068Z,51
2017-06-23T13:25:31.553Z,51
2017-06-23T13:26:39.350Z,49.7
2017-06-23T13:27:46.499Z,49.8
2017-06-23T13:28:53.663Z,48.9
2017-06-23T13:30:01.155Z,49.7
2017-06-23T13:31:08.642Z,50.3
2017-06-23T13:32:16.158Z,49.7
2017-06-23T13:33:23.640Z,49.8
2017-06-23T13:34:31.149Z,51
2017-06-23T13:35:38.631Z,50.1
2017-06-23T13:36:45.794Z,51.6
2017-06-23T13:37:53.639Z,51.2
2017-06-23T13:39:01.122Z,51.8
2017-06-23T13:40:08.609Z,51.7
2017-06-23T13:41:15.780Z,49.6
2017-06-23T13:42:23.276Z,49.5
2017-06-23T13:43:31.125Z,50.6
2017-06-23T13:44:38.630Z,50.9
2017-06-23T13:45:46.135Z,50
2017-06-23T13:46:53.651Z,47.5
2017-06-23T13:48:00.813Z,49.2
2017-06-23T13:49:08.647Z,49.9
2017-06-23T13:50:16.144Z,49.8
2017-06-23T13:51:23.651Z,51.2
2017-06-23T13:52:31.138Z,48.8
2017-06-23T13:53:38.315Z,49.6
2017-06-23T13:54:46.170Z,50.7
2017-06-23T13:55:53.665Z,50.4
2017-06-23T13:57:01.155Z,49.8
2017-06-23T13:58:08.648Z,49.7
2017-06-23T13:59:16.138Z,50.5
2017-06-23T14:00:23.659Z,51
2017-06-23T14:01:31.147Z,51.8
2017-06-23T14:02:38.638Z,49.3
2017-06-23T14:03:45.975Z,50
2017-06-23T14:04:53.476Z,51
2017-06-23T14:06:01.321Z,49.6
2017-06-23T14:07:08.822Z,49.4
2017-06-23T14:08:16.318Z,50
2017-06-23T14:09:23.809Z,49.9
2017-06-23T14:10:31.310Z,49.5
2017-06-23T14:11:38.828Z,49.8
2017-06-23T14:12:46.323Z,49.5
2017-06-23T14:13:53.803Z,49.1
2017-06-23T14:15:01.295Z,49.4
2017-06-23T14:16:08.458Z,49.3
2017-06-23T14:17:15.948Z,50.4
2017-06-23T14:18:22.778Z,49.6
2017-06-23T14:19:30.270Z,50.3
2017-06-23T14:20:37.443Z,49.5
2017-06-23T14:21:45.242Z,49.7
2017-06-23T14:22:52.737Z,50
2017-06-23T14:24:00.249Z,47.9
2017-06-23T14:25:07.422Z,47.5
2017-06-23T14:26:14.583Z,46.8
2017-06-23T14:27:22.048Z,48
2017-06-23T14:28:29.539Z,47
2017-06-23T14:29:36.719Z,47.2
2017-06-23T14:30:44.212Z,46.1
2017-06-23T14:31:52.311Z,47.4
2017-06-23T14:33:00.103Z,46.8
2017-06-23T14:35:29.679Z,45
2017-06-23T14:36:37.169Z,47.5
2017-06-23T14:37:44.667Z,44.4
2017-06-23T14:38:52.159Z,45.1
2017-06-23T14:39:59.654Z,45.1
2017-06-23T14:41:06.489Z,45.1
2017-06-23T14:42:13.649Z,44.3
2017-06-23T14:43:21.142Z,45.6
2017-06-23T14:44:28.937Z,45.3
2017-06-23T14:45:36.430Z,45.7
2017-06-23T14:46:43.924Z,45.1
2017-06-23T14:47:51.409Z,44.3
2017-06-23T14:48:58.904Z,43
2017-06-23T14:50:06.112Z,44.5
2017-06-23T14:51:13.601Z,42
2017-06-23T14:52:21.105Z,42.3
2017-06-23T14:53:28.596Z,41.1
2017-06-23T14:54:35.754Z,41.3
2017-06-23T14:55:43.547Z,41.8
2017-06-23T14:56:51.035Z,43.9
2017-06-23T14:57:58.530Z,43.2
2017-06-23T14:59:06.027Z,43.1
2017-06-23T15:00:13.543Z,42.7
2017-06-23T15:01:21.048Z,44.8
2017-06-23T15:02:28.224Z,43.2
2017-06-23T15:03:35.729Z,45.4
2017-06-23T15:04:43.222Z,45.3
2017-06-23T15:05:50.714Z,46.3
2017-06-23T15:06:58.177Z,47.6